WCAT438 CYHZ-CYHZ
Flight info
| Callsign | WCAT438 |
|---|---|
| Flight time | 0h 14m |
| Altitude | 2000 |
| Route | VFR |
| Aircraft | B412/L-VGD/A |
Departure
| Time | 2026-04-27 22:42 |
|---|---|
| Airport | Halifax / Stanfield International Airport (CYHZ) |
Arrival
| Time | 2026-04-27 22:56 |
|---|---|
| Airport | Halifax / Stanfield International Airport (CYHZ) |
| Time | Latitude | Longitude | Altitude | Speed | Heading |
|---|---|---|---|---|---|
| 2026-04-27 22:31 | 44.86792 | -63.53040 | 457 ft | 0 kts | 0° |
| 2026-04-27 22:32 | 44.86792 | -63.53039 | 457 ft | 0 kts | 0° |
| 2026-04-27 22:34 | 44.86792 | -63.53038 | 457 ft | 0 kts | 0° |
| 2026-04-27 22:35 | 44.86792 | -63.53037 | 457 ft | 0 kts | 0° |
| 2026-04-27 22:37 | 44.86792 | -63.53036 | 457 ft | 0 kts | 0° |
| 2026-04-27 22:39 | 44.86792 | -63.53035 | 457 ft | 0 kts | 0° |
| 2026-04-27 22:41 | 44.86792 | -63.53034 | 457 ft | 0 kts | 0° |
| 2026-04-27 22:41 | 44.86810 | -63.53008 | 620 ft | 11 kts | 28° |
| 2026-04-27 22:42 | 44.86977 | -63.53246 | 1089 ft | 67 kts | 323° |
| 2026-04-27 22:42 | 44.87464 | -63.53478 | 814 ft | 70 kts | 332° |
| 2026-04-27 22:42 | 44.87657 | -63.53872 | 896 ft | 52 kts | 247° |
| 2026-04-27 22:42 | 44.87382 | -63.53957 | 1003 ft | 57 kts | 150° |
| 2026-04-27 22:43 | 44.87630 | -63.53609 | 782 ft | 98 kts | 290° |
| 2026-04-27 22:43 | 44.87453 | -63.53746 | 926 ft | 66 kts | 82° |
| 2026-04-27 22:43 | 44.87899 | -63.53775 | 1026 ft | 87 kts | 285° |
| 2026-04-27 22:43 | 44.87733 | -63.54370 | 1092 ft | 76 kts | 192° |
| 2026-04-27 22:44 | 44.87177 | -63.54192 | 835 ft | 99 kts | 142° |
| 2026-04-27 22:44 | 44.87340 | -63.53427 | 703 ft | 114 kts | 19° |
| 2026-04-27 22:44 | 44.87914 | -63.53965 | 676 ft | 112 kts | 279° |
| 2026-04-27 22:44 | 44.87611 | -63.54370 | 852 ft | 60 kts | 164° |
| 2026-04-27 22:45 | 44.87347 | -63.54099 | 764 ft | 78 kts | 140° |
| 2026-04-27 22:45 | 44.87513 | -63.53359 | 735 ft | 103 kts | 343° |
| 2026-04-27 22:45 | 44.87729 | -63.54023 | 805 ft | 75 kts | 201° |
| 2026-04-27 22:45 | 44.87234 | -63.53964 | 725 ft | 71 kts | 143° |
| 2026-04-27 22:46 | 44.87550 | -63.53451 | 685 ft | 108 kts | 350° |
| 2026-04-27 22:46 | 44.87438 | -63.53836 | 697 ft | 68 kts | 181° |
| 2026-04-27 22:46 | 44.87527 | -63.53404 | 665 ft | 91 kts | 320° |
| 2026-04-27 22:46 | 44.87328 | -63.53644 | 697 ft | 67 kts | 126° |
| 2026-04-27 22:47 | 44.87613 | -63.53620 | 655 ft | 76 kts | 241° |
| 2026-04-27 22:47 | 44.87349 | -63.53461 | 643 ft | 83 kts | 70° |
| 2026-04-27 22:47 | 44.87556 | -63.53692 | 594 ft | 56 kts | 183° |
| 2026-04-27 22:47 | 44.87331 | -63.53341 | 626 ft | 77 kts | 52° |
| 2026-04-27 22:48 | 44.87570 | -63.53698 | 728 ft | 65 kts | 225° |
| 2026-04-27 22:48 | 44.87326 | -63.53618 | 716 ft | 72 kts | 111° |
| 2026-04-27 22:48 | 44.87690 | -63.53767 | 722 ft | 73 kts | 208° |
| 2026-04-27 22:48 | 44.87284 | -63.53789 | 724 ft | 77 kts | 110° |
| 2026-04-27 22:49 | 44.87708 | -63.53334 | 779 ft | 91 kts | 6° |
| 2026-04-27 22:49 | 44.88224 | -63.52877 | 835 ft | 84 kts | 63° |
| 2026-04-27 22:49 | 44.88717 | -63.52994 | 934 ft | 86 kts | 300° |
| 2026-04-27 22:49 | 44.89145 | -63.53662 | 903 ft | 99 kts | 310° |
| 2026-04-27 22:50 | 44.89692 | -63.53946 | 887 ft | 94 kts | 44° |
| 2026-04-27 22:50 | 44.89811 | -63.53026 | 685 ft | 102 kts | 93° |
| 2026-04-27 22:50 | 44.89542 | -63.52109 | 525 ft | 103 kts | 116° |
| 2026-04-27 22:50 | 44.89160 | -63.51300 | 478 ft | 97 kts | 121° |
| 2026-04-27 22:51 | 44.88771 | -63.50543 | 472 ft | 93 kts | 122° |
| 2026-04-27 22:51 | 44.88402 | -63.49810 | 489 ft | 91 kts | 121° |
| 2026-04-27 22:51 | 44.88317 | -63.49055 | 656 ft | 87 kts | 54° |
| 2026-04-27 22:51 | 44.88933 | -63.48814 | 674 ft | 104 kts | 346° |
| 2026-04-27 22:52 | 44.89522 | -63.49419 | 684 ft | 101 kts | 296° |
| 2026-04-27 22:52 | 44.90082 | -63.50018 | 701 ft | 107 kts | 348° |
| 2026-04-27 22:52 | 44.90450 | -63.49505 | 563 ft | 90 kts | 152° |
| 2026-04-27 22:52 | 44.90073 | -63.49363 | 510 ft | 89 kts | 130° |
| 2026-04-27 22:53 | 44.90135 | -63.48254 | 527 ft | 95 kts | 82° |
| 2026-04-27 22:53 | 44.90182 | -63.47707 | 689 ft | 78 kts | 87° |
| 2026-04-27 22:53 | 44.90312 | -63.46849 | 570 ft | 102 kts | 70° |
| 2026-04-27 22:53 | 44.90626 | -63.45921 | 513 ft | 93 kts | 71° |
| 2026-04-27 22:54 | 44.90811 | -63.45062 | 502 ft | 96 kts | 79° |
| 2026-04-27 22:54 | 44.90943 | -63.44166 | 598 ft | 86 kts | 80° |
| 2026-04-27 22:54 | 44.90966 | -63.43405 | 728 ft | 82 kts | 102° |
| 2026-04-27 22:54 | 44.91120 | -63.42599 | 825 ft | 89 kts | 53° |
| 2026-04-27 22:55 | 44.91580 | -63.41841 | 629 ft | 115 kts | 46° |
| 2026-04-27 22:55 | 44.91919 | -63.41318 | 789 ft | 67 kts | 93° |
| 2026-04-27 22:55 | 44.92072 | -63.40581 | 721 ft | 89 kts | 87° |
| 2026-04-27 22:55 | 44.92381 | -63.40026 | 878 ft | 89 kts | 333° |
| 2026-04-27 22:56 | 44.92263 | -63.40359 | 891 ft | 72 kts | 132° |
| 2026-04-27 22:56 | 44.92516 | -63.40110 | 814 ft | 89 kts | 259° |
| 2026-04-27 22:56 | 44.92528 | -63.40255 | 702 ft | 48 kts | 233° |
| 2026-04-27 22:56 | 44.92269 | -63.40372 | 690 ft | 65 kts | 156° |
| 2026-04-27 22:57 | 44.92357 | -63.40274 | 750 ft | 84 kts | 168° |
| 2026-04-27 22:57 | 44.92331 | -63.40201 | 769 ft | 82 kts | 228° |
| 2026-04-27 22:57 | 44.92407 | -63.40271 | 984 ft | 57 kts | 148° |
| 2026-04-27 22:57 | 44.92675 | -63.40306 | 1014 ft | 103 kts | 259° |
| 2026-04-27 22:58 | 44.92152 | -63.40405 | 1534 ft | 74 kts | 155° |
| 2026-04-27 22:58 | 44.92572 | -63.40312 | 1747 ft | 128 kts | 307° |
| 2026-04-27 22:58 | 44.92548 | -63.41622 | 1303 ft | 156 kts | 224° |
| 2026-04-27 22:58 | 44.91875 | -63.42428 | 851 ft | 136 kts | 212° |
| 2026-04-27 22:59 | 44.91130 | -63.43345 | 844 ft | 132 kts | 207° |
| 2026-04-27 22:59 | 44.90367 | -63.44116 | 867 ft | 148 kts | 202° |
| 2026-04-27 22:59 | 44.89640 | -63.44890 | 749 ft | 75 kts | 225° |
| 2026-04-27 22:59 | 44.89591 | -63.45836 | 853 ft | 116 kts | 242° |
| 2026-04-27 23:00 | 44.89132 | -63.48587 | 809 ft | 117 kts | 221° |
| 2026-04-27 23:00 | 44.88584 | -63.49050 | 633 ft | 117 kts | 197° |
| 2026-04-27 23:00 | 44.88230 | -63.50014 | 590 ft | 148 kts | 274° |
| 2026-04-27 23:01 | 44.88260 | -63.51112 | 483 ft | 80 kts | 232° |
| 2026-04-27 23:01 | 44.88131 | -63.51572 | 616 ft | 50 kts | 254° |
| 2026-04-27 23:01 | 44.87703 | -63.52013 | 615 ft | 79 kts | 212° |
| 2026-04-27 23:01 | 44.87242 | -63.52454 | 604 ft | 88 kts | 188° |
| 2026-04-27 23:02 | 44.86903 | -63.52813 | 457 ft | 1 kts | 230° |
| 2026-04-27 23:02 | 44.86852 | -63.52981 | 467 ft | 19 kts | 188° |
| 2026-04-27 23:02 | 44.86789 | -63.53031 | 456 ft | 0 kts | 233° |
| 2026-04-27 23:02 | 44.86791 | -63.53032 | 457 ft | 0 kts | 225° |